sensor_id;sensor_type;location;lat;lon;timestamp;P1;durP1;ratioP1;P2;durP2;ratioP2
24008;SDS011;12217;50.792;4.372;2023-02-12T00:01:01;13.43;;;12.13;;
24008;SDS011;12217;50.792;4.372;2023-02-12T00:03:27;15.13;;;12.60;;
24008;SDS011;12217;50.792;4.372;2023-02-12T00:05:53;14.02;;;12.40;;
24008;SDS011;12217;50.792;4.372;2023-02-12T00:08:18;15.10;;;12.50;;
24008;SDS011;12217;50.792;4.372;2023-02-12T00:10:44;15.13;;;12.32;;
24008;SDS011;12217;50.792;4.372;2023-02-12T00:13:10;13.65;;;12.25;;
24008;SDS011;12217;50.792;4.372;2023-02-12T00:15:39;13.10;;;11.80;;
24008;SDS011;12217;50.792;4.372;2023-02-12T00:18:06;16.25;;;12.20;;
24008;SDS011;12217;50.792;4.372;2023-02-12T00:20:32;13.68;;;11.50;;
24008;SDS011;12217;50.792;4.372;2023-02-12T00:22:58;13.05;;;11.57;;
24008;SDS011;12217;50.792;4.372;2023-02-12T00:25:23;14.30;;;12.27;;
24008;SDS011;12217;50.792;4.372;2023-02-12T00:27:49;13.18;;;11.75;;
24008;SDS011;12217;50.792;4.372;2023-02-12T00:30:15;12.43;;;11.18;;
24008;SDS011;12217;50.792;4.372;2023-02-12T00:32:41;13.23;;;11.82;;
24008;SDS011;12217;50.792;4.372;2023-02-12T00:35:06;12.30;;;10.57;;
24008;SDS011;12217;50.792;4.372;2023-02-12T00:37:32;12.90;;;11.10;;
24008;SDS011;12217;50.792;4.372;2023-02-12T00:39:58;12.95;;;11.65;;
24008;SDS011;12217;50.792;4.372;2023-02-12T00:42:23;13.52;;;11.32;;
24008;SDS011;12217;50.792;4.372;2023-02-12T00:44:49;14.48;;;10.95;;
24008;SDS011;12217;50.792;4.372;2023-02-12T00:47:15;12.18;;;10.88;;
24008;SDS011;12217;50.792;4.372;2023-02-12T00:49:41;12.23;;;10.75;;
24008;SDS011;12217;50.792;4.372;2023-02-12T00:52:06;12.38;;;11.07;;
24008;SDS011;12217;50.792;4.372;2023-02-12T00:54:32;12.02;;;10.77;;
24008;SDS011;12217;50.792;4.372;2023-02-12T00:56:58;13.07;;;11.63;;
24008;SDS011;12217;50.792;4.372;2023-02-12T00:59:24;13.20;;;10.23;;
24008;SDS011;12217;50.792;4.372;2023-02-12T01:01:51;11.43;;;10.13;;
24008;SDS011;12217;50.792;4.372;2023-02-12T01:04:18;11.93;;;9.80;;
24008;SDS011;12217;50.792;4.372;2023-02-12T01:06:44;11.60;;;10.10;;
24008;SDS011;12217;50.792;4.372;2023-02-12T01:09:09;10.35;;;9.30;;
24008;SDS011;12217;50.792;4.372;2023-02-12T01:11:35;10.50;;;9.50;;
24008;SDS011;12217;50.792;4.372;2023-02-12T01:14:01;11.18;;;9.80;;
24008;SDS011;12217;50.792;4.372;2023-02-12T01:16:28;9.77;;;8.80;;
24008;SDS011;12217;50.792;4.372;2023-02-12T01:18:55;10.75;;;9.65;;
24008;SDS011;12217;50.792;4.372;2023-02-12T01:21:23;10.48;;;9.40;;
24008;SDS011;12217;50.792;4.372;2023-02-12T01:23:50;10.05;;;9.05;;
24008;SDS011;12217;50.792;4.372;2023-02-12T01:26:16;9.85;;;8.85;;
24008;SDS011;12217;50.792;4.372;2023-02-12T01:28:46;9.75;;;8.75;;
24008;SDS011;12217;50.792;4.372;2023-02-12T01:31:16;9.20;;;8.40;;
24008;SDS011;12217;50.792;4.372;2023-02-12T01:33:45;9.20;;;8.30;;
24008;SDS011;12217;50.792;4.372;2023-02-12T01:36:12;9.98;;;9.00;;
24008;SDS011;12217;50.792;4.372;2023-02-12T01:38:38;9.52;;;8.52;;
24008;SDS011;12217;50.792;4.372;2023-02-12T01:41:07;9.80;;;8.85;;
24008;SDS011;12217;50.792;4.372;2023-02-12T01:43:35;9.57;;;8.68;;
24008;SDS011;12217;50.792;4.372;2023-02-12T01:46:02;9.85;;;8.73;;
24008;SDS011;12217;50.792;4.372;2023-02-12T01:48:30;9.93;;;8.88;;
24008;SDS011;12217;50.792;4.372;2023-02-12T01:50:59;9.02;;;7.95;;
24008;SDS011;12217;50.792;4.372;2023-02-12T01:53:28;9.07;;;8.15;;
24008;SDS011;12217;50.792;4.372;2023-02-12T01:55:59;9.07;;;8.18;;
24008;SDS011;12217;50.792;4.372;2023-02-12T01:58:28;9.63;;;8.00;;
24008;SDS011;12217;50.792;4.372;2023-02-12T02:00:59;8.90;;;8.00;;
24008;SDS011;12217;50.792;4.372;2023-02-12T02:03:26;8.57;;;7.72;;
24008;SDS011;12217;50.792;4.372;2023-02-12T02:05:55;8.80;;;7.97;;
24008;SDS011;12217;50.792;4.372;2023-02-12T02:08:26;8.48;;;7.45;;
24008;SDS011;12217;50.792;4.372;2023-02-12T02:10:52;9.18;;;8.27;;
24008;SDS011;12217;50.792;4.372;2023-02-12T02:13:18;9.13;;;8.13;;
24008;SDS011;12217;50.792;4.372;2023-02-12T02:16:09;7.85;;;7.05;;
24008;SDS011;12217;50.792;4.372;2023-02-12T02:24:36;7.93;;;7.10;;
24008;SDS011;12217;50.792;4.372;2023-02-12T02:27:13;8.07;;;7.32;;
24008;SDS011;12217;50.792;4.372;2023-02-12T02:32:54;8.48;;;7.38;;
24008;SDS011;12217;50.792;4.372;2023-02-12T02:43:32;8.65;;;7.72;;
24008;SDS011;12217;50.792;4.372;2023-02-12T02:46:08;8.38;;;7.68;;
24008;SDS011;12217;50.792;4.372;2023-02-12T02:48:39;8.63;;;7.82;;
24008;SDS011;12217;50.792;4.372;2023-02-12T02:51:14;9.50;;;8.52;;
24008;SDS011;12217;50.792;4.372;2023-02-12T02:53:55;9.40;;;8.50;;
24008;SDS011;12217;50.792;4.372;2023-02-12T02:56:27;10.70;;;9.20;;
24008;SDS011;12217;50.792;4.372;2023-02-12T02:58:56;9.00;;;8.20;;
24008;SDS011;12217;50.792;4.372;2023-02-12T03:01:29;10.43;;;9.40;;
24008;SDS011;12217;50.792;4.372;2023-02-12T03:04:05;10.27;;;9.18;;
24008;SDS011;12217;50.792;4.372;2023-02-12T03:06:43;9.43;;;8.63;;
24008;SDS011;12217;50.792;4.372;2023-02-12T03:12:02;9.75;;;8.98;;
24008;SDS011;12217;50.792;4.372;2023-02-12T03:14:37;11.07;;;9.88;;
24008;SDS011;12217;50.792;4.372;2023-02-12T03:17:12;10.20;;;9.27;;
24008;SDS011;12217;50.792;4.372;2023-02-12T03:19:46;10.38;;;9.48;;
24008;SDS011;12217;50.792;4.372;2023-02-12T03:22:17;10.80;;;9.85;;
24008;SDS011;12217;50.792;4.372;2023-02-12T03:24:49;10.43;;;9.52;;
24008;SDS011;12217;50.792;4.372;2023-02-12T03:27:21;11.23;;;10.13;;
24008;SDS011;12217;50.792;4.372;2023-02-12T03:29:53;10.55;;;9.55;;
24008;SDS011;12217;50.792;4.372;2023-02-12T03:37:32;11.10;;;10.18;;
24008;SDS011;12217;50.792;4.372;2023-02-12T03:40:34;11.02;;;10.02;;
24008;SDS011;12217;50.792;4.372;2023-02-12T03:43:28;10.85;;;9.75;;
24008;SDS011;12217;50.792;4.372;2023-02-12T03:48:41;10.80;;;9.90;;
24008;SDS011;12217;50.792;4.372;2023-02-12T03:51:29;11.02;;;10.02;;
24008;SDS011;12217;50.792;4.372;2023-02-12T03:54:00;10.43;;;9.57;;
24008;SDS011;12217;50.792;4.372;2023-02-12T03:59:16;11.60;;;10.43;;
24008;SDS011;12217;50.792;4.372;2023-02-12T04:01:48;11.02;;;10.13;;
24008;SDS011;12217;50.792;4.372;2023-02-12T04:04:17;11.10;;;10.10;;
24008;SDS011;12217;50.792;4.372;2023-02-12T04:06:44;10.98;;;10.07;;
24008;SDS011;12217;50.792;4.372;2023-02-12T04:09:12;11.48;;;10.48;;
24008;SDS011;12217;50.792;4.372;2023-02-12T04:25:55;10.73;;;9.85;;
24008;SDS011;12217;50.792;4.372;2023-02-12T04:28:34;11.70;;;10.70;;
24008;SDS011;12217;50.792;4.372;2023-02-12T04:31:22;11.73;;;10.73;;
24008;SDS011;12217;50.792;4.372;2023-02-12T04:34:13;12.32;;;11.32;;
24008;SDS011;12217;50.792;4.372;2023-02-12T04:36:50;12.48;;;11.38;;
24008;SDS011;12217;50.792;4.372;2023-02-12T04:39:23;11.73;;;10.68;;
24008;SDS011;12217;50.792;4.372;2023-02-12T04:41:52;11.57;;;10.57;;
24008;SDS011;12217;50.792;4.372;2023-02-12T04:44:22;12.00;;;11.10;;
24008;SDS011;12217;50.792;4.372;2023-02-12T04:46:49;11.80;;;10.88;;
24008;SDS011;12217;50.792;4.372;2023-02-12T04:49:17;12.40;;;11.40;;
24008;SDS011;12217;50.792;4.372;2023-02-12T04:51:44;12.38;;;11.43;;
24008;SDS011;12217;50.792;4.372;2023-02-12T04:54:10;12.05;;;11.13;;
24008;SDS011;12217;50.792;4.372;2023-02-12T04:56:36;11.75;;;10.77;;
24008;SDS011;12217;50.792;4.372;2023-02-12T04:59:02;11.60;;;10.68;;
24008;SDS011;12217;50.792;4.372;2023-02-12T05:01:28;11.90;;;10.90;;
24008;SDS011;12217;50.792;4.372;2023-02-12T05:03:54;10.77;;;9.88;;
24008;SDS011;12217;50.792;4.372;2023-02-12T05:06:19;10.88;;;9.98;;
24008;SDS011;12217;50.792;4.372;2023-02-12T05:08:45;11.93;;;10.93;;
24008;SDS011;12217;50.792;4.372;2023-02-12T05:11:11;11.82;;;10.80;;
24008;SDS011;12217;50.792;4.372;2023-02-12T05:13:37;12.18;;;11.18;;
24008;SDS011;12217;50.792;4.372;2023-02-12T05:16:03;11.60;;;10.70;;
24008;SDS011;12217;50.792;4.372;2023-02-12T05:18:30;12.00;;;10.90;;
24008;SDS011;12217;50.792;4.372;2023-02-12T05:21:00;12.05;;;11.15;;
24008;SDS011;12217;50.792;4.372;2023-02-12T05:23:28;11.60;;;10.60;;
24008;SDS011;12217;50.792;4.372;2023-02-12T05:25:56;12.45;;;11.23;;
24008;SDS011;12217;50.792;4.372;2023-02-12T05:28:23;11.80;;;10.90;;
24008;SDS011;12217;50.792;4.372;2023-02-12T05:30:48;10.80;;;9.90;;
24008;SDS011;12217;50.792;4.372;2023-02-12T05:33:14;12.05;;;10.95;;
24008;SDS011;12217;50.792;4.372;2023-02-12T05:35:39;10.95;;;10.05;;
24008;SDS011;12217;50.792;4.372;2023-02-12T05:38:05;11.15;;;10.15;;
24008;SDS011;12217;50.792;4.372;2023-02-12T05:40:31;11.43;;;10.43;;
24008;SDS011;12217;50.792;4.372;2023-02-12T05:42:56;11.38;;;10.48;;
24008;SDS011;12217;50.792;4.372;2023-02-12T05:45:22;11.73;;;10.73;;
24008;SDS011;12217;50.792;4.372;2023-02-12T05:47:52;12.00;;;11.02;;
24008;SDS011;12217;50.792;4.372;2023-02-12T05:50:18;11.00;;;10.10;;
24008;SDS011;12217;50.792;4.372;2023-02-12T05:52:43;11.18;;;10.27;;
24008;SDS011;12217;50.792;4.372;2023-02-12T05:55:09;11.77;;;10.88;;
24008;SDS011;12217;50.792;4.372;2023-02-12T05:57:35;10.90;;;10.10;;
24008;SDS011;12217;50.792;4.372;2023-02-12T06:00:00;10.18;;;9.38;;
24008;SDS011;12217;50.792;4.372;2023-02-12T06:02:26;10.95;;;10.15;;
24008;SDS011;12217;50.792;4.372;2023-02-12T06:04:53;11.30;;;10.35;;
24008;SDS011;12217;50.792;4.372;2023-02-12T06:07:18;10.52;;;9.73;;
24008;SDS011;12217;50.792;4.372;2023-02-12T06:09:44;11.35;;;10.43;;
24008;SDS011;12217;50.792;4.372;2023-02-12T06:12:10;10.73;;;9.85;;
24008;SDS011;12217;50.792;4.372;2023-02-12T06:14:35;11.82;;;10.82;;
24008;SDS011;12217;50.792;4.372;2023-02-12T06:17:01;11.80;;;10.70;;
24008;SDS011;12217;50.792;4.372;2023-02-12T06:19:27;10.70;;;9.80;;
24008;SDS011;12217;50.792;4.372;2023-02-12T06:21:52;11.23;;;10.40;;
24008;SDS011;12217;50.792;4.372;2023-02-12T06:24:18;10.60;;;9.70;;
24008;SDS011;12217;50.792;4.372;2023-02-12T06:26:44;10.63;;;9.82;;
24008;SDS011;12217;50.792;4.372;2023-02-12T06:29:09;10.30;;;9.50;;
24008;SDS011;12217;50.792;4.372;2023-02-12T06:31:35;10.15;;;9.25;;
24008;SDS011;12217;50.792;4.372;2023-02-12T06:34:02;9.98;;;9.20;;
24008;SDS011;12217;50.792;4.372;2023-02-12T06:36:32;10.50;;;9.70;;
24008;SDS011;12217;50.792;4.372;2023-02-12T06:38:59;10.55;;;9.65;;
24008;SDS011;12217;50.792;4.372;2023-02-12T06:41:26;10.15;;;9.35;;
24008;SDS011;12217;50.792;4.372;2023-02-12T06:43:52;10.70;;;9.85;;
24008;SDS011;12217;50.792;4.372;2023-02-12T06:46:18;10.38;;;9.57;;
24008;SDS011;12217;50.792;4.372;2023-02-12T06:48:43;9.68;;;8.88;;
24008;SDS011;12217;50.792;4.372;2023-02-12T06:51:10;10.13;;;9.23;;
24008;SDS011;12217;50.792;4.372;2023-02-12T06:53:38;10.20;;;9.40;;
24008;SDS011;12217;50.792;4.372;2023-02-12T06:56:05;9.73;;;8.82;;
24008;SDS011;12217;50.792;4.372;2023-02-12T06:58:35;9.80;;;9.00;;
24008;SDS011;12217;50.792;4.372;2023-02-12T07:01:15;9.82;;;9.02;;
24008;SDS011;12217;50.792;4.372;2023-02-12T07:04:03;10.15;;;9.40;;
24008;SDS011;12217;50.792;4.372;2023-02-12T07:06:29;9.80;;;9.00;;
24008;SDS011;12217;50.792;4.372;2023-02-12T07:08:55;9.43;;;8.70;;
24008;SDS011;12217;50.792;4.372;2023-02-12T07:11:22;9.23;;;8.52;;
24008;SDS011;12217;50.792;4.372;2023-02-12T07:13:52;9.77;;;8.98;;
24008;SDS011;12217;50.792;4.372;2023-02-12T07:16:18;9.20;;;8.40;;
24008;SDS011;12217;50.792;4.372;2023-02-12T07:18:43;8.73;;;7.93;;
24008;SDS011;12217;50.792;4.372;2023-02-12T07:21:09;8.48;;;7.75;;
24008;SDS011;12217;50.792;4.372;2023-02-12T07:23:37;8.80;;;8.10;;
24008;SDS011;12217;50.792;4.372;2023-02-12T07:26:04;8.52;;;7.82;;
24008;SDS011;12217;50.792;4.372;2023-02-12T07:28:31;8.00;;;7.40;;
24008;SDS011;12217;50.792;4.372;2023-02-12T07:30:58;7.53;;;6.93;;
24008;SDS011;12217;50.792;4.372;2023-02-12T07:33:24;8.10;;;7.30;;
24008;SDS011;12217;50.792;4.372;2023-02-12T07:35:49;7.20;;;6.70;;
24008;SDS011;12217;50.792;4.372;2023-02-12T07:38:15;7.60;;;7.00;;
24008;SDS011;12217;50.792;4.372;2023-02-12T07:40:41;8.27;;;7.57;;
24008;SDS011;12217;50.792;4.372;2023-02-12T07:43:06;7.65;;;7.05;;
24008;SDS011;12217;50.792;4.372;2023-02-12T07:45:32;7.45;;;6.82;;
24008;SDS011;12217;50.792;4.372;2023-02-12T07:47:57;7.70;;;7.00;;
24008;SDS011;12217;50.792;4.372;2023-02-12T07:50:23;6.88;;;6.38;;
24008;SDS011;12217;50.792;4.372;2023-02-12T07:52:49;6.68;;;6.03;;
24008;SDS011;12217;50.792;4.372;2023-02-12T07:55:15;7.05;;;6.45;;
24008;SDS011;12217;50.792;4.372;2023-02-12T07:57:41;7.13;;;6.43;;
24008;SDS011;12217;50.792;4.372;2023-02-12T08:00:07;6.90;;;6.30;;
24008;SDS011;12217;50.792;4.372;2023-02-12T08:02:33;6.43;;;5.82;;
24008;SDS011;12217;50.792;4.372;2023-02-12T08:04:59;6.97;;;6.35;;
24008;SDS011;12217;50.792;4.372;2023-02-12T08:07:25;6.72;;;6.03;;
24008;SDS011;12217;50.792;4.372;2023-02-12T08:09:50;6.32;;;5.82;;
24008;SDS011;12217;50.792;4.372;2023-02-12T08:12:16;5.88;;;5.38;;
24008;SDS011;12217;50.792;4.372;2023-02-12T08:14:42;6.45;;;5.90;;
24008;SDS011;12217;50.792;4.372;2023-02-12T08:17:08;6.00;;;5.50;;
24008;SDS011;12217;50.792;4.372;2023-02-12T08:19:34;5.97;;;5.57;;
24008;SDS011;12217;50.792;4.372;2023-02-12T08:22:00;5.55;;;5.15;;
24008;SDS011;12217;50.792;4.372;2023-02-12T08:24:30;5.90;;;5.50;;
24008;SDS011;12217;50.792;4.372;2023-02-12T08:26:56;6.07;;;5.57;;
24008;SDS011;12217;50.792;4.372;2023-02-12T08:29:23;6.07;;;5.60;;
24008;SDS011;12217;50.792;4.372;2023-02-12T08:31:54;5.78;;;5.38;;
24008;SDS011;12217;50.792;4.372;2023-02-12T08:34:28;6.25;;;5.68;;
24008;SDS011;12217;50.792;4.372;2023-02-12T08:36:57;5.68;;;5.28;;
24008;SDS011;12217;50.792;4.372;2023-02-12T08:39:24;5.65;;;5.25;;
24008;SDS011;12217;50.792;4.372;2023-02-12T08:41:52;5.35;;;4.95;;
24008;SDS011;12217;50.792;4.372;2023-02-12T08:44:19;6.05;;;5.55;;
24008;SDS011;12217;50.792;4.372;2023-02-12T08:46:46;5.97;;;5.38;;
24008;SDS011;12217;50.792;4.372;2023-02-12T08:49:15;5.82;;;5.32;;
24008;SDS011;12217;50.792;4.372;2023-02-12T08:51:46;5.85;;;5.40;;
24008;SDS011;12217;50.792;4.372;2023-02-12T08:54:14;5.07;;;4.72;;
24008;SDS011;12217;50.792;4.372;2023-02-12T08:56:43;5.97;;;5.47;;
24008;SDS011;12217;50.792;4.372;2023-02-12T08:59:09;5.40;;;5.00;;
24008;SDS011;12217;50.792;4.372;2023-02-12T09:01:37;5.43;;;5.03;;
24008;SDS011;12217;50.792;4.372;2023-02-12T09:04:03;6.32;;;5.57;;
24008;SDS011;12217;50.792;4.372;2023-02-12T09:06:31;5.22;;;4.82;;
24008;SDS011;12217;50.792;4.372;2023-02-12T09:08:58;5.50;;;5.10;;
24008;SDS011;12217;50.792;4.372;2023-02-12T09:11:24;6.03;;;5.53;;
24008;SDS011;12217;50.792;4.372;2023-02-12T09:13:55;6.30;;;5.30;;
24008;SDS011;12217;50.792;4.372;2023-02-12T09:16:26;8.82;;;5.78;;
24008;SDS011;12217;50.792;4.372;2023-02-12T09:18:53;8.38;;;5.90;;
24008;SDS011;12217;50.792;4.372;2023-02-12T09:21:19;11.43;;;6.00;;
24008;SDS011;12217;50.792;4.372;2023-02-12T09:23:45;6.28;;;5.68;;
24008;SDS011;12217;50.792;4.372;2023-02-12T09:26:13;8.23;;;6.00;;
24008;SDS011;12217;50.792;4.372;2023-02-12T09:28:39;6.60;;;5.72;;
24008;SDS011;12217;50.792;4.372;2023-02-12T09:31:06;7.25;;;5.97;;
24008;SDS011;12217;50.792;4.372;2023-02-12T09:33:33;7.18;;;6.13;;
24008;SDS011;12217;50.792;4.372;2023-02-12T09:36:00;8.00;;;5.45;;
24008;SDS011;12217;50.792;4.372;2023-02-12T09:38:27;6.30;;;5.68;;
24008;SDS011;12217;50.792;4.372;2023-02-12T09:41:36;6.72;;;6.03;;
24008;SDS011;12217;50.792;4.372;2023-02-12T09:44:08;8.20;;;5.35;;
24008;SDS011;12217;50.792;4.372;2023-02-12T09:46:52;5.15;;;4.68;;
24008;SDS011;12217;50.792;4.372;2023-02-12T09:52:33;9.00;;;5.70;;
24008;SDS011;12217;50.792;4.372;2023-02-12T09:54:59;6.72;;;5.32;;
24008;SDS011;12217;50.792;4.372;2023-02-12T09:57:27;8.68;;;5.28;;
24008;SDS011;12217;50.792;4.372;2023-02-12T10:02:48;9.52;;;5.32;;
24008;SDS011;12217;50.792;4.372;2023-02-12T10:05:18;9.07;;;5.45;;
24008;SDS011;12217;50.792;4.372;2023-02-12T10:16:20;7.10;;;5.95;;
24008;SDS011;12217;50.792;4.372;2023-02-12T10:22:20;7.28;;;5.50;;
24008;SDS011;12217;50.792;4.372;2023-02-12T10:25:05;6.25;;;5.60;;
24008;SDS011;12217;50.792;4.372;2023-02-12T10:27:46;7.05;;;5.38;;
24008;SDS011;12217;50.792;4.372;2023-02-12T10:33:14;6.22;;;5.60;;
24008;SDS011;12217;50.792;4.372;2023-02-12T10:35:50;6.60;;;5.50;;
24008;SDS011;12217;50.792;4.372;2023-02-12T10:38:38;5.60;;;5.05;;
24008;SDS011;12217;50.792;4.372;2023-02-12T10:41:06;6.85;;;5.68;;
24008;SDS011;12217;50.792;4.372;2023-02-12T10:43:34;7.63;;;5.28;;
24008;SDS011;12217;50.792;4.372;2023-02-12T10:46:00;6.53;;;5.50;;
24008;SDS011;12217;50.792;4.372;2023-02-12T10:48:29;8.38;;;5.30;;
24008;SDS011;12217;50.792;4.372;2023-02-12T10:51:05;6.55;;;5.75;;
24008;SDS011;12217;50.792;4.372;2023-02-12T10:53:44;7.03;;;5.63;;
24008;SDS011;12217;50.792;4.372;2023-02-12T10:58:55;6.80;;;5.82;;
24008;SDS011;12217;50.792;4.372;2023-02-12T11:01:25;7.40;;;5.68;;
24008;SDS011;12217;50.792;4.372;2023-02-12T11:03:56;7.32;;;6.13;;
24008;SDS011;12217;50.792;4.372;2023-02-12T11:06:25;6.13;;;5.50;;
24008;SDS011;12217;50.792;4.372;2023-02-12T11:08:53;5.70;;;5.20;;
24008;SDS011;12217;50.792;4.372;2023-02-12T11:13:46;7.50;;;6.72;;
24008;SDS011;12217;50.792;4.372;2023-02-12T11:16:53;7.20;;;6.47;;
24008;SDS011;12217;50.792;4.372;2023-02-12T11:19:22;7.03;;;6.05;;
24008;SDS011;12217;50.792;4.372;2023-02-12T11:24:21;8.68;;;6.47;;
24008;SDS011;12217;50.792;4.372;2023-02-12T11:26:50;7.32;;;6.40;;
24008;SDS011;12217;50.792;4.372;2023-02-12T11:29:19;7.30;;;6.18;;
24008;SDS011;12217;50.792;4.372;2023-02-12T11:32:01;9.20;;;7.38;;
24008;SDS011;12217;50.792;4.372;2023-02-12T11:34:35;10.50;;;7.10;;
24008;SDS011;12217;50.792;4.372;2023-02-12T11:37:01;7.43;;;6.72;;
24008;SDS011;12217;50.792;4.372;2023-02-12T11:42:02;10.27;;;6.78;;
24008;SDS011;12217;50.792;4.372;2023-02-12T11:44:51;8.38;;;6.90;;
24008;SDS011;12217;50.792;4.372;2023-02-12T11:47:23;7.47;;;6.70;;
24008;SDS011;12217;50.792;4.372;2023-02-12T11:49:58;8.65;;;7.40;;
24008;SDS011;12217;50.792;4.372;2023-02-12T11:52:46;7.68;;;6.80;;
24008;SDS011;12217;50.792;4.372;2023-02-12T11:55:20;8.07;;;6.65;;
24008;SDS011;12217;50.792;4.372;2023-02-12T11:57:49;8.18;;;6.57;;
24008;SDS011;12217;50.792;4.372;2023-02-12T12:00:18;8.15;;;6.90;;
24008;SDS011;12217;50.792;4.372;2023-02-12T12:03:20;7.25;;;6.55;;
24008;SDS011;12217;50.792;4.372;2023-02-12T12:05:52;9.88;;;6.60;;
24008;SDS011;12217;50.792;4.372;2023-02-12T12:17:50;10.77;;;7.18;;
24008;SDS011;12217;50.792;4.372;2023-02-12T12:21:00;10.00;;;7.53;;
24008;SDS011;12217;50.792;4.372;2023-02-12T12:23:38;9.93;;;7.15;;
24008;SDS011;12217;50.792;4.372;2023-02-12T12:26:43;7.80;;;6.65;;
24008;SDS011;12217;50.792;4.372;2023-02-12T12:31:57;7.70;;;6.90;;
24008;SDS011;12217;50.792;4.372;2023-02-12T12:34:26;7.70;;;6.80;;
24008;SDS011;12217;50.792;4.372;2023-02-12T12:53:53;6.85;;;5.43;;
24008;SDS011;12217;50.792;4.372;2023-02-12T13:12:32;7.15;;;4.82;;
24008;SDS011;12217;50.792;4.372;2023-02-12T13:15:27;6.05;;;5.10;;
24008;SDS011;12217;50.792;4.372;2023-02-12T13:18:16;5.25;;;4.75;;
24008;SDS011;12217;50.792;4.372;2023-02-12T13:23:56;5.32;;;4.82;;
24008;SDS011;12217;50.792;4.372;2023-02-12T13:29:31;5.18;;;4.65;;
24008;SDS011;12217;50.792;4.372;2023-02-12T13:32:04;5.10;;;4.60;;
24008;SDS011;12217;50.792;4.372;2023-02-12T13:34:36;5.28;;;4.68;;
24008;SDS011;12217;50.792;4.372;2023-02-12T13:37:03;5.32;;;4.82;;
24008;SDS011;12217;50.792;4.372;2023-02-12T13:39:35;5.55;;;4.68;;
24008;SDS011;12217;50.792;4.372;2023-02-12T13:44:40;5.20;;;4.70;;
24008;SDS011;12217;50.792;4.372;2023-02-12T13:49:56;5.45;;;4.95;;
24008;SDS011;12217;50.792;4.372;2023-02-12T13:55:16;5.95;;;5.20;;
24008;SDS011;12217;50.792;4.372;2023-02-12T14:01:10;6.55;;;5.43;;
24008;SDS011;12217;50.792;4.372;2023-02-12T14:06:53;5.57;;;4.70;;
24008;SDS011;12217;50.792;4.372;2023-02-12T14:12:50;5.88;;;5.10;;
24008;SDS011;12217;50.792;4.372;2023-02-12T14:14:54;7.63;;;5.60;;
24008;SDS011;12217;50.792;4.372;2023-02-12T14:25:11;6.63;;;5.30;;
24008;SDS011;12217;50.792;4.372;2023-02-12T14:31:19;7.35;;;5.15;;
24008;SDS011;12217;50.792;4.372;2023-02-12T14:33:43;5.80;;;5.15;;
24008;SDS011;12217;50.792;4.372;2023-02-12T14:41:30;5.10;;;4.63;;
24008;SDS011;12217;50.792;4.372;2023-02-12T14:47:04;4.93;;;4.45;;
24008;SDS011;12217;50.792;4.372;2023-02-12T14:57:26;5.90;;;5.20;;
24008;SDS011;12217;50.792;4.372;2023-02-12T15:02:40;5.53;;;5.03;;
24008;SDS011;12217;50.792;4.372;2023-02-12T15:05:26;5.20;;;4.70;;
24008;SDS011;12217;50.792;4.372;2023-02-12T15:08:17;5.68;;;5.18;;
24008;SDS011;12217;50.792;4.372;2023-02-12T15:10:54;5.93;;;5.25;;
24008;SDS011;12217;50.792;4.372;2023-02-12T15:13:30;6.75;;;5.00;;
24008;SDS011;12217;50.792;4.372;2023-02-12T15:21:30;6.60;;;4.88;;
24008;SDS011;12217;50.792;4.372;2023-02-12T15:26:38;6.13;;;4.82;;
24008;SDS011;12217;50.792;4.372;2023-02-12T15:29:19;5.25;;;4.80;;
24008;SDS011;12217;50.792;4.372;2023-02-12T15:31:49;5.55;;;5.05;;
24008;SDS011;12217;50.792;4.372;2023-02-12T15:34:27;6.75;;;5.10;;
24008;SDS011;12217;50.792;4.372;2023-02-12T15:37:04;6.00;;;4.97;;
24008;SDS011;12217;50.792;4.372;2023-02-12T15:39:39;5.70;;;5.20;;
24008;SDS011;12217;50.792;4.372;2023-02-12T15:42:27;5.28;;;4.78;;
24008;SDS011;12217;50.792;4.372;2023-02-12T15:47:42;6.25;;;4.95;;
24008;SDS011;12217;50.792;4.372;2023-02-12T15:50:13;5.28;;;4.75;;
24008;SDS011;12217;50.792;4.372;2023-02-12T15:52:42;5.95;;;5.38;;
24008;SDS011;12217;50.792;4.372;2023-02-12T15:55:16;6.45;;;5.85;;
24008;SDS011;12217;50.792;4.372;2023-02-12T15:57:48;5.88;;;5.28;;
24008;SDS011;12217;50.792;4.372;2023-02-12T16:00:24;6.00;;;5.43;;
24008;SDS011;12217;50.792;4.372;2023-02-12T16:02:54;6.18;;;5.38;;
24008;SDS011;12217;50.792;4.372;2023-02-12T16:05:21;6.03;;;5.43;;
24008;SDS011;12217;50.792;4.372;2023-02-12T16:07:47;6.57;;;5.82;;
24008;SDS011;12217;50.792;4.372;2023-02-12T16:10:14;7.22;;;5.30;;
24008;SDS011;12217;50.792;4.372;2023-02-12T16:12:41;5.75;;;5.20;;
24008;SDS011;12217;50.792;4.372;2023-02-12T16:15:21;5.00;;;4.45;;
24008;SDS011;12217;50.792;4.372;2023-02-12T16:17:55;6.22;;;5.63;;
24008;SDS011;12217;50.792;4.372;2023-02-12T16:20:24;5.75;;;5.25;;
24008;SDS011;12217;50.792;4.372;2023-02-12T16:22:51;5.88;;;5.28;;
24008;SDS011;12217;50.792;4.372;2023-02-12T16:25:26;5.75;;;5.25;;
24008;SDS011;12217;50.792;4.372;2023-02-12T16:28:06;5.95;;;5.45;;
24008;SDS011;12217;50.792;4.372;2023-02-12T16:30:44;5.68;;;5.18;;
24008;SDS011;12217;50.792;4.372;2023-02-12T16:33:47;7.00;;;5.97;;
24008;SDS011;12217;50.792;4.372;2023-02-12T16:36:24;5.88;;;5.10;;
24008;SDS011;12217;50.792;4.372;2023-02-12T16:41:24;5.50;;;4.93;;
24008;SDS011;12217;50.792;4.372;2023-02-12T16:46:30;6.03;;;5.43;;
24008;SDS011;12217;50.792;4.372;2023-02-12T16:48:58;5.53;;;5.03;;
24008;SDS011;12217;50.792;4.372;2023-02-12T16:51:27;5.55;;;5.03;;
24008;SDS011;12217;50.792;4.372;2023-02-12T16:53:56;5.93;;;5.25;;
24008;SDS011;12217;50.792;4.372;2023-02-12T16:56:27;5.90;;;5.30;;
24008;SDS011;12217;50.792;4.372;2023-02-12T16:58:56;6.10;;;5.40;;
24008;SDS011;12217;50.792;4.372;2023-02-12T17:03:50;7.97;;;5.00;;
24008;SDS011;12217;50.792;4.372;2023-02-12T17:06:17;7.75;;;5.13;;
24008;SDS011;12217;50.792;4.372;2023-02-12T17:08:48;6.68;;;5.47;;
24008;SDS011;12217;50.792;4.372;2023-02-12T17:11:14;8.27;;;5.82;;
24008;SDS011;12217;50.792;4.372;2023-02-12T17:13:42;8.40;;;5.32;;
24008;SDS011;12217;50.792;4.372;2023-02-12T17:16:10;5.90;;;5.30;;
24008;SDS011;12217;50.792;4.372;2023-02-12T17:18:36;8.50;;;5.43;;
24008;SDS011;12217;50.792;4.372;2023-02-12T17:21:04;8.40;;;5.72;;
24008;SDS011;12217;50.792;4.372;2023-02-12T17:23:33;7.20;;;5.00;;
24008;SDS011;12217;50.792;4.372;2023-02-12T17:25:59;10.40;;;6.13;;
24008;SDS011;12217;50.792;4.372;2023-02-12T17:28:25;11.20;;;6.78;;
24008;SDS011;12217;50.792;4.372;2023-02-12T17:30:51;6.90;;;5.90;;
24008;SDS011;12217;50.792;4.372;2023-02-12T17:33:18;10.32;;;5.80;;
24008;SDS011;12217;50.792;4.372;2023-02-12T17:35:44;6.57;;;5.60;;
24008;SDS011;12217;50.792;4.372;2023-02-12T17:38:10;8.10;;;6.15;;
24008;SDS011;12217;50.792;4.372;2023-02-12T17:40:36;7.70;;;5.88;;
24008;SDS011;12217;50.792;4.372;2023-02-12T17:43:05;9.02;;;6.13;;
24008;SDS011;12217;50.792;4.372;2023-02-12T17:45:31;7.15;;;5.93;;
24008;SDS011;12217;50.792;4.372;2023-02-12T17:47:57;7.35;;;6.40;;
24008;SDS011;12217;50.792;4.372;2023-02-12T17:50:24;7.20;;;5.68;;
24008;SDS011;12217;50.792;4.372;2023-02-12T17:52:50;8.13;;;6.07;;
24008;SDS011;12217;50.792;4.372;2023-02-12T17:55:16;6.93;;;5.97;;
24008;SDS011;12217;50.792;4.372;2023-02-12T17:57:42;7.75;;;6.07;;
24008;SDS011;12217;50.792;4.372;2023-02-12T18:00:09;7.95;;;6.40;;
24008;SDS011;12217;50.792;4.372;2023-02-12T18:02:36;7.40;;;6.50;;
24008;SDS011;12217;50.792;4.372;2023-02-12T18:05:02;6.70;;;6.00;;
24008;SDS011;12217;50.792;4.372;2023-02-12T18:07:31;6.80;;;6.15;;
24008;SDS011;12217;50.792;4.372;2023-02-12T18:09:57;7.80;;;6.10;;
24008;SDS011;12217;50.792;4.372;2023-02-12T18:12:23;6.72;;;5.93;;